Time;durP1;ratioP1;P1;durP2;ratioP2;P2;SDS_P1;SDS_P2;PMS_P1;PMS_P2;Temp;Humidity;BMP_temperature;BMP_pressure;BME280_temperature;BME280_humidity;BME280_pressure;Samples;Min_cycle;Max_cycle;Signal;HPM_P1;HPM_P2
2023/03/08 00:00:51;;;;;;;12.30;6.22;;;6.00;99.90;;;;;;5060993;28;20044;-74
2023/03/08 00:03:17;;;;;;;10.25;5.47;;;6.10;99.90;;;;;;5062571;28;20048;-74
2023/03/08 00:05:43;;;;;;;12.55;6.30;;;6.00;99.90;;;;;;5061022;28;20033;-75
2023/03/08 00:08:10;;;;;;;9.43;4.78;;;6.00;99.90;;;;;;5060846;28;20036;-74
2023/03/08 00:10:36;;;;;;;8.45;4.72;;;6.10;99.90;;;;;;5062611;28;20045;-74
2023/03/08 00:13:02;;;;;;;9.60;4.95;;;6.10;99.90;;;;;;5061320;28;20154;-74
2023/03/08 00:15:28;;;;;;;9.02;4.88;;;6.00;99.90;;;;;;5061748;28;20041;-74
2023/03/08 00:17:54;;;;;;;10.90;5.60;;;6.00;99.90;;;;;;5060855;28;20488;-75
2023/03/08 00:20:21;;;;;;;10.63;5.80;;;6.00;99.90;;;;;;5061410;28;20095;-74
2023/03/08 00:22:47;;;;;;;11.27;6.03;;;6.00;99.90;;;;;;5050613;28;20041;-75
2023/03/08 00:25:15;;;;;;;8.13;5.22;;;6.00;99.90;;;;;;5059702;28;20028;-75
2023/03/08 00:27:42;;;;;;;11.02;5.43;;;6.00;99.90;;;;;;5058486;28;20385;-75
2023/03/08 00:30:09;;;;;;;8.70;5.07;;;6.00;99.90;;;;;;5062153;28;20391;-75
2023/03/08 00:32:35;;;;;;;11.80;6.57;;;6.00;99.90;;;;;;5059273;28;20375;-75
2023/03/08 00:35:01;;;;;;;7.15;4.22;;;6.00;99.90;;;;;;5061554;28;20036;-75
2023/03/08 00:37:27;;;;;;;12.90;6.30;;;5.90;99.90;;;;;;5061899;28;20050;-74
2023/03/08 00:39:54;;;;;;;11.98;6.97;;;5.90;99.90;;;;;;5057431;28;20077;-75
2023/03/08 00:42:21;;;;;;;8.77;5.05;;;5.90;99.90;;;;;;5064502;28;20061;-75
2023/03/08 00:44:47;;;;;;;9.02;5.38;;;5.80;99.90;;;;;;5060100;28;20029;-75
2023/03/08 00:47:14;;;;;;;11.32;5.50;;;5.90;99.90;;;;;;5085075;28;20402;-75
2023/03/08 00:49:42;;;;;;;11.38;6.22;;;5.80;99.90;;;;;;5064380;28;20393;-74
2023/03/08 00:52:09;;;;;;;12.82;5.93;;;5.80;99.90;;;;;;5060563;28;20049;-75
2023/03/08 00:54:36;;;;;;;11.68;5.57;;;5.80;99.90;;;;;;5062399;28;20476;-75
2023/03/08 00:57:03;;;;;;;10.10;5.45;;;5.80;99.90;;;;;;5061072;28;20028;-75
2023/03/08 00:59:29;;;;;;;7.93;5.00;;;5.80;99.90;;;;;;5060842;28;20037;-75
2023/03/08 01:01:57;;;;;;;11.85;6.05;;;5.70;99.90;;;;;;5076743;28;20036;-74
2023/03/08 01:04:23;;;;;;;8.48;5.60;;;5.70;99.90;;;;;;5059425;28;20470;-75
2023/03/08 01:06:50;;;;;;;10.55;5.75;;;5.60;99.90;;;;;;5060857;28;20051;-75
2023/03/08 01:09:16;;;;;;;10.20;5.85;;;5.60;99.90;;;;;;5062818;28;20044;-75
2023/03/08 01:11:44;;;;;;;12.32;6.15;;;5.50;99.90;;;;;;5080083;28;20370;-75
2023/03/08 01:14:12;;;;;;;11.00;6.40;;;5.50;99.90;;;;;;5054202;28;20037;-75
2023/03/08 01:16:39;;;;;;;11.25;6.00;;;5.50;99.90;;;;;;5065443;28;20028;-75
2023/03/08 01:19:06;;;;;;;10.38;5.70;;;5.50;99.90;;;;;;5063034;28;20454;-75
2023/03/08 01:21:32;;;;;;;12.82;6.43;;;5.40;99.90;;;;;;5064659;28;20037;-74
2023/03/08 01:23:58;;;;;;;10.75;5.88;;;5.50;99.90;;;;;;5064282;28;20025;-75
2023/03/08 01:26:27;;;;;;;10.23;5.15;;;5.40;99.90;;;;;;5064401;28;20040;-74
2023/03/08 01:28:57;;;;;;;10.57;5.70;;;5.40;99.90;;;;;;5062960;28;20052;-75
2023/03/08 01:31:26;;;;;;;10.00;5.65;;;5.40;99.90;;;;;;5069352;28;20458;-74
2023/03/08 01:33:54;;;;;;;10.77;6.03;;;5.30;99.90;;;;;;5063404;28;20037;-74
2023/03/08 01:36:23;;;;;;;14.10;6.40;;;5.40;99.90;;;;;;5063719;28;20044;-74
2023/03/08 01:38:50;;;;;;;13.07;6.40;;;5.40;99.90;;;;;;5050120;28;20040;-75
2023/03/08 01:41:28;;;;;;;21.48;10.68;;;5.40;99.90;;;;;;5064108;28;20037;-74
2023/03/08 01:43:55;;;;;;;90.47;44.58;;;5.30;99.90;;;;;;5061108;28;20516;-75
2023/03/08 01:46:26;;;;;;;30.90;12.75;;;5.40;99.90;;;;;;5063152;28;20041;-74
2023/03/08 01:49:32;;;;;;;30.52;16.20;;;5.30;99.90;;;;;;5056602;28;20033;-74
2023/03/08 01:52:07;;;;;;;19.55;10.70;;;5.40;99.90;;;;;;5057549;28;20415;-74
2023/03/08 01:54:40;;;;;;;20.00;11.15;;;5.40;99.90;;;;;;5063440;28;20488;-74
2023/03/08 01:57:14;;;;;;;18.23;11.02;;;5.30;99.90;;;;;;5063471;28;20771;-75
2023/03/08 01:59:42;;;;;;;21.40;12.98;;;5.40;99.90;;;;;;5056487;28;20390;-74
2023/03/08 02:02:09;;;;;;;25.60;14.77;;;5.30;99.90;;;;;;5075590;28;20041;-75
2023/03/08 02:04:35;;;;;;;25.65;13.32;;;5.40;99.90;;;;;;5051691;28;20037;-74
2023/03/08 02:07:02;;;;;;;23.83;12.07;;;5.40;99.90;;;;;;5055516;28;20036;-75
2023/03/08 02:09:28;;;;;;;17.27;9.85;;;5.40;99.90;;;;;;5052117;28;20051;-74
2023/03/08 02:12:00;;;;;;;17.58;11.13;;;5.40;99.90;;;;;;5063374;28;20120;-75
2023/03/08 02:14:27;;;;;;;17.83;10.93;;;5.40;99.90;;;;;;5071783;28;20052;-75
2023/03/08 02:16:54;;;;;;;13.75;7.97;;;5.40;99.90;;;;;;5060699;28;20040;-75
2023/03/08 02:19:27;;;;;;;11.82;7.35;;;5.40;99.90;;;;;;5062110;28;20048;-75
2023/03/08 02:21:53;;;;;;;16.73;8.45;;;5.40;99.90;;;;;;5051084;28;20044;-75
2023/03/08 02:24:22;;;;;;;12.07;6.72;;;5.40;99.90;;;;;;5064358;28;20461;-75
2023/03/08 02:26:51;;;;;;;13.77;6.85;;;5.40;99.90;;;;;;5063347;28;20029;-75
2023/03/08 02:29:18;;;;;;;12.48;8.13;;;5.40;99.90;;;;;;5058646;28;20028;-75
2023/03/08 02:31:44;;;;;;;15.10;9.30;;;5.50;99.90;;;;;;5068517;28;20029;-76
2023/03/08 02:34:10;;;;;;;11.82;6.03;;;5.40;99.90;;;;;;5066302;28;20044;-76
2023/03/08 02:36:36;;;;;;;13.98;7.70;;;5.40;99.90;;;;;;5066261;28;20036;-76
2023/03/08 02:39:02;;;;;;;12.35;7.55;;;5.40;99.90;;;;;;5062944;28;20051;-75
2023/03/08 02:41:28;;;;;;;11.10;6.45;;;5.40;99.90;;;;;;5061528;28;20037;-75
2023/03/08 02:43:54;;;;;;;10.38;6.93;;;5.40;99.90;;;;;;5062009;28;20045;-75
2023/03/08 02:46:21;;;;;;;13.45;6.40;;;5.40;99.90;;;;;;5061266;28;20037;-75
2023/03/08 02:48:48;;;;;;;11.88;6.20;;;5.30;99.90;;;;;;5062159;28;20040;-75
2023/03/08 02:51:14;;;;;;;13.15;6.80;;;5.30;99.90;;;;;;5061729;28;20048;-75
2023/03/08 02:53:40;;;;;;;12.02;6.15;;;5.30;99.90;;;;;;5060897;28;20037;-75
2023/03/08 02:56:06;;;;;;;11.45;6.28;;;5.30;99.90;;;;;;5063158;28;20028;-75
2023/03/08 02:58:33;;;;;;;9.93;5.95;;;5.30;99.90;;;;;;5059461;28;20409;-75
2023/03/08 03:00:59;;;;;;;12.30;6.80;;;5.20;99.90;;;;;;5062217;28;20049;-75
2023/03/08 03:03:26;;;;;;;12.82;6.97;;;5.10;99.90;;;;;;5055869;28;20041;-75
2023/03/08 03:05:52;;;;;;;12.80;6.78;;;5.10;99.90;;;;;;5062133;28;20465;-75
2023/03/08 03:08:24;;;;;;;9.82;6.45;;;5.10;99.90;;;;;;5056642;28;20508;-75
2023/03/08 03:10:53;;;;;;;12.30;7.18;;;5.10;99.90;;;;;;5060190;28;20052;-75
2023/03/08 03:13:19;;;;;;;12.50;6.47;;;5.00;99.90;;;;;;5062806;28;20028;-75
2023/03/08 03:15:46;;;;;;;9.85;5.72;;;5.10;99.90;;;;;;5063758;28;20423;-76
2023/03/08 03:18:12;;;;;;;11.88;7.22;;;5.00;99.90;;;;;;5059077;28;20036;-74
2023/03/08 03:20:38;;;;;;;10.98;6.93;;;5.10;99.90;;;;;;5063156;28;20466;-74
2023/03/08 03:23:05;;;;;;;15.82;7.90;;;5.10;99.90;;;;;;5077628;28;20033;-75
2023/03/08 03:25:42;;;;;;;10.93;6.00;;;5.10;99.90;;;;;;5075558;28;20393;-75
2023/03/08 03:28:12;;;;;;;10.93;5.93;;;5.00;99.90;;;;;;5070414;28;20044;-75
2023/03/08 03:30:39;;;;;;;9.93;6.18;;;5.00;99.90;;;;;;5056019;28;20037;-74
2023/03/08 03:33:07;;;;;;;9.27;6.28;;;4.90;99.90;;;;;;5072430;28;20473;-75
2023/03/08 03:35:36;;;;;;;12.63;5.85;;;4.90;99.90;;;;;;5062834;28;20381;-74
2023/03/08 03:38:02;;;;;;;10.65;6.03;;;4.80;99.90;;;;;;5057575;28;20044;-75
2023/03/08 03:40:28;;;;;;;10.35;5.63;;;4.70;99.90;;;;;;5071007;28;20041;-74
2023/03/08 03:42:59;;;;;;;;;;;4.70;99.90;;;;;;5059913;28;20041;-74
2023/03/08 03:45:25;;;;;;;8.50;4.45;;;4.60;99.90;;;;;;5077344;28;19920;-74
2023/03/08 03:47:52;;;;;;;10.13;5.97;;;4.60;99.90;;;;;;5075063;28;20051;-75
2023/03/08 03:50:19;;;;;;;9.77;5.30;;;4.60;99.90;;;;;;5073187;28;20052;-74
2023/03/08 03:52:53;;;;;;;10.43;5.82;;;4.50;99.90;;;;;;5051449;28;20052;-75
2023/03/08 03:55:20;;;;;;;11.45;5.80;;;4.50;99.90;;;;;;5061272;28;20037;-75
2023/03/08 03:57:47;;;;;;;10.88;6.45;;;4.40;99.90;;;;;;5075719;28;20055;-75
2023/03/08 04:00:16;;;;;;;8.60;5.15;;;4.40;99.90;;;;;;5044811;28;20378;-75
2023/03/08 04:02:48;;;;;;;10.00;5.68;;;4.40;99.90;;;;;;5050029;28;20040;-75
2023/03/08 04:05:17;;;;;;;11.50;6.13;;;4.40;99.90;;;;;;5077549;28;20037;-75
2023/03/08 04:07:48;;;;;;;11.68;5.80;;;4.40;99.90;;;;;;5074113;28;20048;-75
2023/03/08 04:10:15;;;;;;;10.13;5.97;;;4.30;99.90;;;;;;5069757;28;20116;-75
2023/03/08 04:12:42;;;;;;;10.60;5.63;;;4.30;99.90;;;;;;5060749;28;20033;-74
2023/03/08 04:15:09;;;;;;;9.90;5.95;;;4.20;99.90;;;;;;5077199;28;20048;-75
2023/03/08 04:17:35;;;;;;;10.13;5.75;;;4.30;99.90;;;;;;5064289;28;20025;-75
2023/03/08 04:20:03;;;;;;;13.63;6.65;;;4.20;99.90;;;;;;5054902;28;20048;-75
2023/03/08 04:22:34;;;;;;;12.32;5.22;;;4.30;99.90;;;;;;5059070;28;20390;-75
2023/03/08 04:25:07;;;;;;;10.70;7.13;;;4.30;99.90;;;;;;5059559;28;20040;-75
2023/03/08 04:27:42;;;;;;;10.18;6.22;;;4.20;99.90;;;;;;5072728;28;20044;-74
2023/03/08 04:30:10;;;;;;;10.45;6.00;;;4.20;99.90;;;;;;5059048;28;20273;-74
2023/03/08 04:32:36;;;;;;;15.38;5.82;;;4.20;99.90;;;;;;5077877;28;20052;-75
2023/03/08 04:35:04;;;;;;;13.95;6.15;;;4.20;99.90;;;;;;5076621;28;20048;-75
2023/03/08 04:37:32;;;;;;;11.15;6.25;;;4.20;99.90;;;;;;5075630;28;20647;-75
2023/03/08 04:40:08;;;;;;;13.25;6.25;;;4.20;99.90;;;;;;5076665;28;20044;-74
2023/03/08 04:42:39;;;;;;;15.13;7.45;;;4.30;99.90;;;;;;5060341;28;20048;-74
2023/03/08 04:45:07;;;;;;;11.70;6.38;;;4.20;99.90;;;;;;5076153;28;20135;-74
2023/03/08 04:47:34;;;;;;;11.77;7.13;;;4.30;99.90;;;;;;5062920;28;20044;-74
2023/03/08 04:50:00;;;;;;;11.85;6.50;;;4.20;99.90;;;;;;5059234;28;20056;-74
2023/03/08 04:52:26;;;;;;;11.25;6.13;;;4.30;99.90;;;;;;5063852;28;20041;-74
2023/03/08 04:54:54;;;;;;;12.98;7.05;;;4.30;99.90;;;;;;5064946;28;20068;-75
2023/03/08 04:57:22;;;;;;;12.05;7.45;;;4.20;99.90;;;;;;5063152;28;20041;-75
2023/03/08 04:59:51;;;;;;;10.23;6.38;;;4.20;99.90;;;;;;5080291;28;20041;-75
2023/03/08 05:02:21;;;;;;;11.60;6.82;;;4.20;99.90;;;;;;5076845;28;20065;-75
2023/03/08 05:04:47;;;;;;;16.73;7.65;;;4.30;99.90;;;;;;5065227;28;20035;-74
2023/03/08 05:07:13;;;;;;;13.70;7.50;;;4.20;99.90;;;;;;5063328;28;20044;-75
2023/03/08 05:09:41;;;;;;;11.18;6.90;;;4.20;99.90;;;;;;5058289;28;20037;-74
2023/03/08 05:12:07;;;;;;;14.00;7.53;;;4.20;99.90;;;;;;5064359;28;20067;-74
2023/03/08 05:14:43;;;;;;;13.52;8.02;;;4.20;99.90;;;;;;5050023;28;20037;-75
2023/03/08 05:17:10;;;;;;;12.45;7.35;;;4.20;99.90;;;;;;5072132;28;20374;-75
2023/03/08 05:19:36;;;;;;;14.63;7.72;;;4.20;99.90;;;;;;5060478;28;20025;-74
2023/03/08 05:22:04;;;;;;;13.65;7.63;;;4.20;99.90;;;;;;5063034;28;20041;-74
2023/03/08 05:24:32;;;;;;;13.63;7.53;;;4.20;99.90;;;;;;5055232;28;20051;-74
2023/03/08 05:27:03;;;;;;;13.48;7.45;;;4.20;99.90;;;;;;5056701;28;20037;-75
2023/03/08 05:29:29;;;;;;;19.92;8.30;;;4.30;99.90;;;;;;5063153;28;20036;-74
2023/03/08 05:31:57;;;;;;;14.20;8.43;;;4.20;99.90;;;;;;5046182;28;20043;-75
2023/03/08 05:34:24;;;;;;;12.57;7.68;;;4.20;99.90;;;;;;5058852;28;20047;-74
2023/03/08 05:36:50;;;;;;;13.68;8.02;;;4.20;99.90;;;;;;5066043;28;20049;-74
2023/03/08 05:39:16;;;;;;;15.13;8.18;;;4.20;99.90;;;;;;5062549;28;20055;-74
2023/03/08 05:41:53;;;;;;;18.55;8.60;;;4.20;99.90;;;;;;5053097;28;20045;-75
2023/03/08 05:44:26;;;;;;;14.43;7.90;;;4.20;99.90;;;;;;5056584;28;20053;-74
2023/03/08 05:46:52;;;;;;;16.92;8.95;;;4.20;99.90;;;;;;5080540;28;20044;-74
2023/03/08 05:49:20;;;;;;;14.95;7.68;;;4.20;99.90;;;;;;5061557;28;20048;-74
2023/03/08 05:51:46;;;;;;;19.85;8.70;;;4.20;99.90;;;;;;5050886;28;20076;-74
2023/03/08 05:54:12;;;;;;;15.70;8.45;;;4.20;99.90;;;;;;5061678;28;20397;-74
2023/03/08 05:56:40;;;;;;;17.63;8.95;;;4.20;99.90;;;;;;5062882;28;20055;-74
2023/03/08 05:59:21;;;;;;;;;;;4.20;99.90;;;;;;5060694;28;20386;-74
2023/03/08 06:01:48;;;;;;;14.40;7.93;;;4.20;99.90;;;;;;5063801;28;19919;-74
2023/03/08 06:04:25;;;;;;;14.57;7.95;;;4.20;99.90;;;;;;5085101;28;20044;-74
2023/03/08 06:06:51;;;;;;;19.55;8.85;;;4.20;99.90;;;;;;5066885;28;20045;-74
2023/03/08 06:09:21;;;;;;;13.35;8.20;;;4.20;99.90;;;;;;5058243;28;20063;-74
2023/03/08 06:11:47;;;;;;;17.00;8.73;;;4.20;99.90;;;;;;5079816;28;20045;-75
2023/03/08 06:14:13;;;;;;;14.48;8.55;;;4.30;99.90;;;;;;5065241;28;20044;-73
2023/03/08 06:16:40;;;;;;;15.52;9.30;;;4.20;99.90;;;;;;5080921;28;20045;-74
2023/03/08 06:19:07;;;;;;;14.00;7.55;;;4.30;99.90;;;;;;5081355;28;20032;-75
2023/03/08 06:21:34;;;;;;;18.17;9.35;;;4.30;99.90;;;;;;5089167;28;20031;-75
2023/03/08 06:24:03;;;;;;;16.52;8.40;;;4.30;99.90;;;;;;5087181;28;20029;-75
2023/03/08 06:26:30;;;;;;;15.23;8.40;;;4.30;99.90;;;;;;5088640;28;20037;-75
2023/03/08 06:28:56;;;;;;;14.30;7.95;;;4.30;99.90;;;;;;5083602;28;20045;-74
2023/03/08 06:31:27;;;;;;;11.83;7.73;;;4.30;99.90;;;;;;5083334;28;20037;-74
2023/03/08 06:33:53;;;;;;;16.02;8.82;;;4.30;99.90;;;;;;5065601;28;20041;-74
2023/03/08 06:36:23;;;;;;;23.95;12.63;;;4.40;99.90;;;;;;5068645;28;20036;-75
2023/03/08 06:38:49;;;;;;;17.02;9.90;;;4.40;99.90;;;;;;5060413;28;20398;-74
2023/03/08 06:41:17;;;;;;;16.83;8.98;;;4.40;99.90;;;;;;5065541;28;20037;-74
2023/03/08 06:43:47;;;;;;;21.95;10.02;;;4.30;99.90;;;;;;5069251;28;20052;-75
2023/03/08 06:46:16;;;;;;;14.93;8.65;;;4.30;99.90;;;;;;5069298;28;20032;-75
2023/03/08 06:48:43;;;;;;;43.05;25.33;;;4.40;99.90;;;;;;5059993;28;20049;-75
2023/03/08 06:51:09;;;;;;;28.20;15.80;;;4.30;99.90;;;;;;5067254;28;20039;-74
2023/03/08 06:53:37;;;;;;;19.90;11.43;;;4.30;99.90;;;;;;5078323;28;20041;-75
2023/03/08 06:56:06;;;;;;;17.17;8.00;;;4.30;99.90;;;;;;5067650;28;20047;-75
2023/03/08 06:58:37;;;;;;;15.10;9.32;;;4.30;99.90;;;;;;5067019;28;20052;-75
2023/03/08 07:01:04;;;;;;;17.90;11.38;;;4.30;99.90;;;;;;5068066;28;20029;-75
2023/03/08 07:03:31;;;;;;;14.60;10.52;;;4.40;99.90;;;;;;5073084;28;20381;-75
2023/03/08 07:06:02;;;;;;;17.67;9.93;;;4.40;99.90;;;;;;5066338;28;20029;-75
2023/03/08 07:08:30;;;;;;;18.30;9.63;;;4.40;99.90;;;;;;5064344;28;20040;-74
2023/03/08 07:10:57;;;;;;;14.45;7.18;;;4.40;99.90;;;;;;5065858;28;20037;-74
2023/03/08 07:13:23;;;;;;;14.80;8.07;;;4.40;99.90;;;;;;5066862;28;20040;-73
2023/03/08 07:15:50;;;;;;;13.02;7.65;;;4.40;99.90;;;;;;5056073;28;20037;-74
2023/03/08 07:18:17;;;;;;;20.65;8.18;;;4.40;99.90;;;;;;5060648;28;20390;-74
2023/03/08 07:20:43;;;;;;;15.80;10.57;;;4.40;99.90;;;;;;5063615;28;20036;-74
2023/03/08 07:23:10;;;;;;;17.10;10.88;;;4.40;99.90;;;;;;5061233;28;20454;-74
2023/03/08 07:25:39;;;;;;;16.25;8.85;;;4.50;99.90;;;;;;5063173;28;20492;-74
2023/03/08 07:28:05;;;;;;;16.85;8.75;;;4.50;99.90;;;;;;5061605;28;20028;-75
2023/03/08 07:30:31;;;;;;;16.70;7.95;;;4.40;99.90;;;;;;5066455;28;20049;-75
2023/03/08 07:32:57;;;;;;;14.80;8.50;;;4.30;99.90;;;;;;5062577;28;20047;-75
2023/03/08 07:35:24;;;;;;;18.55;8.63;;;4.30;99.90;;;;;;5063487;28;20039;-75
2023/03/08 07:37:50;;;;;;;14.70;9.75;;;4.20;99.90;;;;;;5067791;28;20037;-74
2023/03/08 07:40:17;;;;;;;17.73;9.65;;;4.00;99.90;;;;;;5068292;28;20028;-74
2023/03/08 07:42:43;;;;;;;16.88;9.32;;;3.90;99.90;;;;;;5064121;28;20381;-74
2023/03/08 07:45:23;;;;;;;15.60;8.57;;;3.80;99.90;;;;;;5067175;28;20048;-75
2023/03/08 07:47:51;;;;;;;18.38;9.52;;;3.60;99.90;;;;;;5059722;28;20474;-73
2023/03/08 07:50:18;;;;;;;14.85;8.32;;;3.50;99.90;;;;;;5063246;28;20033;-73
2023/03/08 07:52:44;;;;;;;13.32;8.82;;;3.40;99.90;;;;;;5066088;28;20052;-73
2023/03/08 07:55:10;;;;;;;14.85;8.70;;;3.40;1.00;;;;;;5061785;28;20401;-73
2023/03/08 07:57:37;;;;;;;18.10;9.20;;;3.30;1.00;;;;;;5060675;28;20045;-75
2023/03/08 08:00:07;;;;;;;20.30;10.30;;;3.20;1.00;;;;;;5057932;28;20029;-75
2023/03/08 08:02:38;;;;;;;18.42;10.07;;;3.20;1.00;;;;;;5065997;28;20045;-74
2023/03/08 08:05:04;;;;;;;16.60;10.32;;;3.20;1.00;;;;;;5055079;28;20036;-74
2023/03/08 08:07:31;;;;;;;18.25;10.23;;;3.10;1.00;;;;;;5055688;28;20029;-75
2023/03/08 08:09:57;;;;;;;18.58;10.40;;;3.00;1.00;;;;;;5054253;28;20386;-74
2023/03/08 08:12:23;;;;;;;19.70;10.35;;;3.00;1.00;;;;;;5052611;28;20060;-74
2023/03/08 08:14:53;;;;;;;20.13;10.90;;;2.90;1.00;;;;;;5062072;28;20393;-74
2023/03/08 08:17:19;;;;;;;19.95;10.95;;;2.90;1.00;;;;;;5061777;28;20870;-74
2023/03/08 08:19:46;;;;;;;24.42;11.63;;;2.80;1.00;;;;;;5066098;28;20028;-74
2023/03/08 08:22:13;;;;;;;19.92;11.18;;;2.90;1.00;;;;;;5061978;28;20048;-74
2023/03/08 08:24:39;;;;;;;21.98;11.25;;;2.90;1.00;;;;;;5062100;28;20036;-74
2023/03/08 08:27:05;;;;;;;21.80;12.18;;;2.90;1.00;;;;;;5064846;28;20029;-74
2023/03/08 08:29:31;;;;;;;21.55;10.70;;;2.90;1.00;;;;;;5055934;28;20025;-73
2023/03/08 08:31:58;;;;;;;24.88;12.88;;;2.90;1.00;;;;;;5055791;28;20040;-74
2023/03/08 08:34:24;;;;;;;23.90;12.50;;;2.90;1.00;;;;;;5052455;28;20036;-74
2023/03/08 08:36:50;;;;;;;21.00;11.68;;;2.80;1.00;;;;;;5058095;28;20135;-74
2023/03/08 08:39:16;;;;;;;23.13;12.43;;;2.80;1.00;;;;;;5059221;28;20458;-75
2023/03/08 08:41:42;;;;;;;25.35;12.27;;;2.80;1.00;;;;;;5057555;28;20049;-74
2023/03/08 08:44:08;;;;;;;28.52;15.07;;;2.80;1.00;;;;;;5063254;28;20053;-74
2023/03/08 08:46:35;;;;;;;22.65;13.18;;;2.70;1.00;;;;;;5062551;28;20025;-75
2023/03/08 08:49:04;;;;;;;30.65;16.45;;;2.70;1.00;;;;;;5056747;28;20029;-76
2023/03/08 08:51:31;;;;;;;26.35;14.82;;;2.70;1.00;;;;;;5060500;28;20041;-74
2023/03/08 08:53:57;;;;;;;23.80;13.10;;;2.60;1.00;;;;;;5061136;28;20401;-75
2023/03/08 08:56:25;;;;;;;23.90;13.60;;;2.50;1.00;;;;;;5062963;28;20454;-75
2023/03/08 08:58:52;;;;;;;38.45;20.83;;;2.40;1.00;;;;;;5063575;28;20051;-75
2023/03/08 09:01:21;;;;;;;34.35;20.83;;;2.40;5.50;;;;;;5060630;28;20037;-75
2023/03/08 09:03:48;;;;;;;35.55;22.40;;;2.30;7.20;;;;;;5066103;28;20033;-75
2023/03/08 09:06:16;;;;;;;32.28;18.08;;;2.30;11.00;;;;;;5044625;28;20048;-74
2023/03/08 09:08:42;;;;;;;29.48;14.95;;;2.40;17.00;;;;;;5061309;28;20386;-74
2023/03/08 09:11:09;;;;;;;19.98;11.85;;;2.30;14.30;;;;;;5065162;28;20037;-75
2023/03/08 09:13:41;;;;;;;30.98;15.00;;;2.30;16.00;;;;;;5060627;28;20041;-73
2023/03/08 09:16:18;;;;;;;26.05;13.50;;;2.40;19.70;;;;;;5058913;28;20025;-74
2023/03/08 09:18:44;;;;;;;27.67;13.93;;;2.40;16.90;;;;;;5054136;28;20032;-73
2023/03/08 09:21:10;;;;;;;29.85;16.88;;;2.40;21.00;;;;;;5054671;28;20029;-74
2023/03/08 09:23:36;;;;;;;25.90;14.27;;;2.40;25.70;;;;;;5057646;28;20037;-73
2023/03/08 09:26:04;;;;;;;25.50;12.55;;;2.50;27.70;;;;;;5065748;28;20029;-74
2023/03/08 09:28:31;;;;;;;24.50;14.57;;;2.50;26.20;;;;;;5064249;28;20496;-75
2023/03/08 09:30:58;;;;;;;24.58;13.30;;;2.60;29.00;;;;;;5064169;28;20040;-74
2023/03/08 09:33:24;;;;;;;23.55;13.43;;;2.60;28.60;;;;;;5064221;28;20036;-74
2023/03/08 09:35:59;;;;;;;21.50;13.13;;;2.50;28.10;;;;;;5066524;28;20029;-74
2023/03/08 09:38:26;;;;;;;26.20;13.15;;;2.50;31.10;;;;;;5061718;28;20033;-73
2023/03/08 09:41:01;;;;;;;40.75;23.05;;;2.60;33.40;;;;;;5065256;28;20039;-74
2023/03/08 09:43:43;;;;;;;24.98;14.98;;;2.70;34.00;;;;;;5062822;28;20055;-74
2023/03/08 09:46:13;;;;;;;;;;;2.80;40.20;;;;;;5057882;28;20040;-74
2023/03/08 09:48:46;;;;;;;23.02;12.75;;;2.80;31.00;;;;;;5056016;28;19915;-73
2023/03/08 09:51:15;;;;;;;22.38;10.98;;;2.80;34.30;;;;;;5061277;28;20398;-74
2023/03/08 09:53:53;;;;;;;21.05;11.60;;;2.90;37.60;;;;;;5057314;28;20394;-73
2023/03/08 09:56:47;;;;;;;21.23;12.30;;;2.90;36.30;;;;;;5058208;28;20032;-74
2023/03/08 09:59:22;;;;;;;21.70;12.10;;;3.00;34.60;;;;;;5055894;28;20063;-74
2023/03/08 10:01:58;;;;;;;21.02;10.75;;;3.00;28.40;;;;;;5056150;28;20462;-74
2023/03/08 10:04:51;;;;;;;22.33;11.65;;;3.10;32.90;;;;;;5055304;28;20346;-74
2023/03/08 10:07:26;;;;;;;20.35;10.77;;;3.10;30.50;;;;;;5063808;28;20032;-74
2023/03/08 10:10:18;;;;;;;18.50;11.13;;;3.20;35.30;;;;;;5054435;28;20031;-74
2023/03/08 10:12:50;;;;;;;24.90;10.75;;;3.30;37.90;;;;;;5061399;28;20049;-73
2023/03/08 10:15:20;;;;;;;18.00;10.38;;;3.50;35.00;;;;;;5055498;28;20455;-74
2023/03/08 10:17:58;;;;;;;23.35;12.45;;;3.40;26.10;;;;;;5057763;28;20044;-73
2023/03/08 10:20:27;;;;;;;16.85;9.77;;;3.60;34.00;;;;;;5055685;28;20044;-73
2023/03/08 10:23:12;;;;;;;16.50;9.40;;;3.70;25.80;;;;;;5055561;28;20036;-73
2023/03/08 10:25:39;;;;;;;18.80;10.52;;;3.80;23.60;;;;;;5047118;28;20395;-73
2023/03/08 10:28:12;;;;;;;20.52;9.80;;;3.80;12.10;;;;;;5052450;28;20033;-73
2023/03/08 10:30:47;;;;;;;14.43;8.70;;;3.80;12.20;;;;;;5047650;28;20040;-73
2023/03/08 10:33:16;;;;;;;15.32;8.52;;;3.80;14.00;;;;;;5048289;28;20047;-73
2023/03/08 10:36:01;;;;;;;15.43;8.82;;;3.80;9.40;;;;;;5056507;28;20064;-73
2023/03/08 10:38:30;;;;;;;14.05;8.68;;;3.90;12.50;;;;;;5041480;28;20039;-74
2023/03/08 10:41:12;;;;;;;15.68;8.55;;;3.90;13.60;;;;;;5047043;28;20033;-73
2023/03/08 10:43:44;;;;;;;16.30;9.60;;;3.90;9.20;;;;;;5060158;28;20056;-73
2023/03/08 10:46:16;;;;;;;15.80;9.52;;;3.90;5.80;;;;;;5061518;28;20025;-74
2023/03/08 10:48:42;;;;;;;16.08;9.20;;;3.90;5.20;;;;;;5058204;28;20028;-73
2023/03/08 10:51:19;;;;;;;17.50;9.77;;;4.00;7.40;;;;;;5054203;28;20036;-74
2023/03/08 10:54:01;;;;;;;19.35;9.85;;;3.90;5.60;;;;;;5062501;28;20024;-74
2023/03/08 10:56:43;;;;;;;38.50;22.48;;;3.90;5.90;;;;;;5057112;28;20386;-73
2023/03/08 10:59:32;;;;;;;18.77;11.43;;;4.00;8.90;;;;;;5054353;28;20351;-73
2023/03/08 11:02:17;;;;;;;21.08;11.70;;;4.10;10.00;;;;;;5053442;28;20482;-73
2023/03/08 11:05:21;;;;;;;19.92;11.57;;;4.10;8.80;;;;;;5060654;28;20100;-74
2023/03/08 11:07:55;;;;;;;20.95;11.77;;;4.10;3.60;;;;;;5046897;28;20045;-73
2023/03/08 11:10:23;;;;;;;18.55;11.38;;;4.20;4.10;;;;;;5061196;28;20043;-73
2023/03/08 11:13:17;;;;;;;17.35;11.02;;;4.20;1.00;;;;;;5062296;28;20053;-73
2023/03/08 11:15:53;;;;;;;18.02;10.23;;;4.30;1.60;;;;;;5058945;28;20036;-74
2023/03/08 11:18:50;;;;;;;17.58;11.95;;;4.30;1.00;;;;;;5063599;28;20044;-74
2023/03/08 11:21:52;;;;;;;17.20;10.27;;;4.30;1.00;;;;;;5063245;28;20025;-74
2023/03/08 11:24:18;;;;;;;;;;;4.30;1.00;;;;;;5057705;28;20052;-73
2023/03/08 11:27:22;;;;;;;19.23;10.65;;;4.40;1.00;;;;;;5063111;28;19915;-74
2023/03/08 11:30:09;;;;;;;18.42;11.27;;;4.40;1.00;;;;;;5059721;28;20463;-73
2023/03/08 11:33:02;;;;;;;20.75;12.02;;;4.50;1.00;;;;;;5054702;28;20041;-73
2023/03/08 11:35:29;;;;;;;17.70;10.90;;;4.60;1.50;;;;;;5047523;28;20588;-73
2023/03/08 11:37:59;;;;;;;18.05;11.15;;;4.60;1.00;;;;;;5059247;28;20390;-73
2023/03/08 11:40:33;;;;;;;20.27;11.27;;;4.60;1.00;;;;;;5061429;28;20040;-75
2023/03/08 11:43:25;;;;;;;15.30;10.20;;;4.70;1.00;;;;;;5058947;28;20048;-74
2023/03/08 11:45:57;;;;;;;15.85;9.68;;;4.60;1.00;;;;;;5032547;28;20060;-73
2023/03/08 11:48:40;;;;;;;21.48;13.27;;;4.60;1.00;;;;;;5061230;28;20028;-73
2023/03/08 11:51:34;;;;;;;19.70;11.18;;;4.70;1.00;;;;;;5056058;28;20045;-73
2023/03/08 11:54:12;;;;;;;17.02;11.20;;;4.70;1.00;;;;;;5053717;28;20032;-73
2023/03/08 11:56:58;;;;;;;18.73;10.73;;;4.80;1.00;;;;;;5053600;28;20366;-74
2023/03/08 11:59:38;;;;;;;19.80;12.45;;;4.80;1.00;;;;;;5057323;28;20047;-73
2023/03/08 12:02:11;;;;;;;19.95;12.73;;;5.00;1.00;;;;;;5053276;28;20033;-74
2023/03/08 12:04:39;;;;;;;19.38;12.02;;;5.10;1.00;;;;;;5050066;28;20104;-74
2023/03/08 12:07:14;;;;;;;21.38;11.77;;;5.20;1.00;;;;;;5058633;28;20032;-74
2023/03/08 12:09:58;;;;;;;18.15;10.90;;;5.20;1.00;;;;;;5051060;28;20037;-73
2023/03/08 12:12:39;;;;;;;19.83;11.73;;;5.40;1.00;;;;;;5058586;28;20548;-74
2023/03/08 12:15:11;;;;;;;20.42;12.07;;;5.50;1.00;;;;;;5062276;28;20385;-73
2023/03/08 12:17:49;;;;;;;16.83;11.20;;;5.50;1.00;;;;;;5061345;28;20029;-73
2023/03/08 12:20:18;;;;;;;14.65;10.55;;;5.60;1.00;;;;;;5057352;28;20029;-74
2023/03/08 12:22:49;;;;;;;17.95;12.00;;;5.60;1.00;;;;;;5061731;28;20039;-73
2023/03/08 12:25:21;;;;;;;19.75;11.43;;;5.80;1.00;;;;;;5051937;28;20040;-74
2023/03/08 12:27:53;;;;;;;18.20;11.98;;;5.90;1.00;;;;;;5057682;28;20036;-73
2023/03/08 12:30:57;;;;;;;16.75;10.43;;;5.90;1.00;;;;;;5060312;28;20036;-75
2023/03/08 12:33:26;;;;;;;17.20;10.18;;;6.00;1.00;;;;;;5059403;28;20481;-73
2023/03/08 12:35:57;;;;;;;18.58;10.27;;;6.00;1.00;;;;;;5062056;28;20040;-73
2023/03/08 12:38:23;;;;;;;;;;;6.20;1.00;;;;;;5050236;28;20044;-73
2023/03/08 12:40:51;;;;;;;18.25;11.20;;;6.30;1.00;;;;;;5071349;28;20312;-73
2023/03/08 12:43:20;;;;;;;19.08;10.93;;;6.40;1.00;;;;;;5057559;28;20060;-73
2023/03/08 12:45:58;;;;;;;15.85;10.90;;;6.50;1.00;;;;;;5060897;28;20039;-73
2023/03/08 12:48:47;;;;;;;17.45;10.68;;;6.60;1.00;;;;;;5054324;28;20461;-73
2023/03/08 12:51:13;;;;;;;16.27;10.27;;;6.60;1.00;;;;;;5054153;28;20048;-74
2023/03/08 12:53:57;;;;;;;20.10;11.43;;;6.80;1.00;;;;;;5061705;28;20037;-75
2023/03/08 12:56:26;;;;;;;14.90;10.75;;;7.00;1.00;;;;;;5062149;28;20029;-73
2023/03/08 12:59:11;;;;;;;16.95;10.73;;;7.10;1.00;;;;;;5057927;28;20025;-74
2023/03/08 13:01:45;;;;;;;15.73;9.73;;;7.10;1.00;;;;;;5056970;28;20040;-74
2023/03/08 13:04:25;;;;;;;16.17;10.13;;;7.20;1.00;;;;;;5055041;28;20039;-73